page 4900 of 1016824 registered users

eBook PostsUsers

  1. 0sauce3ear registered @ 2012-12-12 20:15:32, last login @ 2012-12-12 20:15:32
  2. 0suedehell7 registered @ 2012-12-12 20:16:02, last login @ 2012-12-12 20:16:02
  3. 0hellliquor1 registered @ 2012-12-12 20:18:14, last login @ 2012-12-12 20:18:14
  4. 0stockbettenvacuu registered @ 2012-12-12 20:18:25, last login @ 2012-12-12 20:18:25
  5. 0babiescrayon81 registered @ 2012-12-12 20:20:46, last login @ 2012-12-12 20:20:46
  6. 0tellertent74 registered @ 2012-12-12 20:24:41, last login @ 2012-12-12 20:24:41
  7. 0timecost68 registered @ 2012-12-12 20:26:40, last login @ 2012-12-12 20:26:40
  8. 0beach1sneeze registered @ 2012-12-12 20:27:03, last login @ 2012-12-12 20:27:03
  9. 0turret12soil registered @ 2012-12-12 20:27:41, last login @ 2012-12-12 20:27:41
  10. 0cellport7 registered @ 2012-12-12 20:27:53, last login @ 2012-12-12 20:27:53
  11. 0screen6font registered @ 2012-12-12 20:30:20, last login @ 2012-12-12 20:30:20
  12. 0beggarstool2 registered @ 2012-12-12 20:31:41, last login @ 2012-12-12 20:31:41
  13. 0pinebrush7 registered @ 2012-12-12 20:33:22, last login @ 2012-12-12 20:33:22
  14. 0maid74change registered @ 2012-12-12 20:33:33, last login @ 2012-12-12 20:33:33
  15. 0lolo2_3 registered @ 2012-12-12 20:34:04, last login @ 2012-12-12 20:34:04
  16. 0sack11bear registered @ 2012-12-12 20:35:08, last login @ 2012-12-12 20:35:08
  17. 0change89cougar registered @ 2012-12-12 20:35:29, last login @ 2012-12-12 20:35:29
  18. 0fir8maid registered @ 2012-12-12 20:35:53, last login @ 2012-12-12 20:35:53
  19. 0marketgrip9 registered @ 2012-12-12 20:38:21, last login @ 2012-12-12 20:38:21
  20. 0plier64dish registered @ 2012-12-12 20:38:40, last login @ 2012-12-12 20:38:40
  21. 0node97sun registered @ 2012-12-12 20:38:42, last login @ 2012-12-12 20:38:42
  22. 0powerpond5 registered @ 2012-12-12 20:40:35, last login @ 2012-12-12 20:40:35
  23. 0cyclemarble42 registered @ 2012-12-12 20:40:40, last login @ 2012-12-12 20:40:40
  24. 0qqplayallday registered @ 2012-12-12 20:41:01, last login @ 2012-12-12 20:41:01
  25. 0skybow4 registered @ 2012-12-12 20:41:23, last login @ 2012-12-12 20:41:23
  26. 0suededugout8 registered @ 2012-12-12 20:42:58, last login @ 2012-12-12 20:42:58
  27. 0gatevein34 registered @ 2012-12-12 20:43:06, last login @ 2012-12-12 20:43:06
  28. 0farmer45look registered @ 2012-12-12 20:44:10, last login @ 2012-12-12 20:44:10
  29. 0save75wealth registered @ 2012-12-12 20:44:17, last login @ 2012-12-12 20:44:17
  30. 0tea1beam registered @ 2012-12-12 20:45:25, last login @ 2012-12-12 20:45:25
  31. 0milk2clutch registered @ 2012-12-12 20:45:58, last login @ 2012-12-12 20:45:58
  32. 0dew79sea registered @ 2012-12-12 20:47:40, last login @ 2012-12-12 20:47:40
  33. 0help04yellow registered @ 2012-12-12 20:48:37, last login @ 2012-12-12 20:48:37
  34. 0straw03money registered @ 2012-12-12 20:48:47, last login @ 2012-12-12 20:48:47
  35. 0clutchseat9 registered @ 2012-12-12 20:50:39, last login @ 2012-12-12 20:50:39
  36. 0gearpower23 registered @ 2012-12-12 20:51:22, last login @ 2012-12-12 20:51:22
  37. 0spadebongo6 registered @ 2012-12-12 20:52:04, last login @ 2012-12-12 20:52:04
  38. 0brand27cinema registered @ 2012-12-12 20:52:15, last login @ 2012-12-12 20:52:15
  39. 0deadbill5 registered @ 2012-12-12 20:53:52, last login @ 2012-12-12 20:53:52
  40. 0familyjohn1 registered @ 2012-12-12 20:57:20, last login @ 2012-12-12 20:57:20
  41. 0stonetrip01 registered @ 2012-12-12 20:58:03, last login @ 2012-12-12 20:58:03
  42. 0expert8number registered @ 2012-12-12 20:58:57, last login @ 2012-12-12 20:58:57
  43. 0washercoke84 registered @ 2012-12-12 20:59:03, last login @ 2012-12-12 20:59:03
  44. 0rose5land registered @ 2012-12-12 20:59:35, last login @ 2012-12-12 20:59:35
  45. 0saibn registered @ 2012-12-12 20:59:55, last login @ 2012-12-12 21:00:06
  46. 0brand85mouse registered @ 2012-12-12 21:00:04, last login @ 2012-12-12 21:00:04
  47. 0pound9report registered @ 2012-12-12 21:00:21, last login @ 2012-12-12 21:00:21
  48. 0okra5mirror registered @ 2012-12-12 21:01:40, last login @ 2012-12-12 21:01:40
  49. 0novelcent28 registered @ 2012-12-12 21:03:12, last login @ 2012-12-12 21:03:12
  50. 0node72bucket registered @ 2012-12-12 21:05:51, last login @ 2012-12-12 21:05:51
  51. 0knight65map registered @ 2012-12-12 21:07:00, last login @ 2012-12-12 21:07:00
  52. 0courtdrill37 registered @ 2012-12-12 21:07:18, last login @ 2012-12-12 21:28:19
  53. 0squidaunt5 registered @ 2012-12-12 21:07:21, last login @ 2012-12-12 21:07:21
  54. 0colontomato54 registered @ 2012-12-12 21:10:25, last login @ 2012-12-12 21:10:25
  55. 0priest89witch registered @ 2012-12-12 21:10:54, last login @ 2012-12-12 21:10:54
  56. 0tempo7plot registered @ 2012-12-12 21:11:06, last login @ 2012-12-12 21:11:06
  57. 0booktennis8 registered @ 2012-12-12 21:11:07, last login @ 2012-12-12 21:11:07
  58. 0deleteincome94 registered @ 2012-12-12 21:11:16, last login @ 2012-12-12 21:11:16
  59. 0harborbarber0 registered @ 2012-12-12 21:12:09, last login @ 2012-12-12 21:12:09
  60. 0liquor73shorts registered @ 2012-12-12 21:13:38, last login @ 2012-12-12 21:13:38
  61. 0hose40need registered @ 2012-12-12 21:14:07, last login @ 2012-12-12 21:14:07
  62. 0lan7church registered @ 2012-12-12 21:14:38, last login @ 2012-12-12 21:14:38
  63. 0cellarchin00 registered @ 2012-12-12 21:16:14, last login @ 2012-12-12 21:16:14
  64. 0binette registered @ 2012-12-12 21:16:27, last login @ 2012-12-12 21:16:27
  65. 0shrine6enemy registered @ 2012-12-12 21:16:37, last login @ 2012-12-12 21:16:37
  66. 0guest112345 registered @ 2012-12-12 21:18:02, last login @ 2012-12-12 21:18:02
  67. 0bagelnapkin0 registered @ 2012-12-12 21:19:23, last login @ 2012-12-12 21:19:23
  68. 0fibre5year registered @ 2012-12-12 21:19:27, last login @ 2012-12-12 21:19:27
  69. 0skirt1moon registered @ 2012-12-12 21:20:08, last login @ 2012-12-12 21:20:08
  70. 0canoe51wheel registered @ 2012-12-12 21:20:44, last login @ 2012-12-12 21:20:44
  71. 0flyjail81 registered @ 2012-12-12 21:24:27, last login @ 2012-12-12 21:24:27
  72. 0desireglass37 registered @ 2012-12-12 21:26:57, last login @ 2012-12-12 21:26:57
  73. 0zebra22friend registered @ 2012-12-12 21:27:22, last login @ 2012-12-12 21:27:22
  74. 0cornsampan17 registered @ 2012-12-12 21:28:22, last login @ 2012-12-12 21:28:22
  75. 0guidewheel80 registered @ 2012-12-12 21:28:58, last login @ 2012-12-12 21:28:58
  76. 0snowfired52 registered @ 2012-12-12 21:29:24, last login @ 2012-12-12 21:29:24
  77. 0crocus54polo registered @ 2012-12-12 21:30:19, last login @ 2012-12-12 21:30:19
  78. 0bean0fire registered @ 2012-12-12 21:32:20, last login @ 2012-12-12 21:32:20
  79. 0lwfgwdehn registered @ 2012-12-12 21:33:09, last login @ 2012-12-12 21:33:09
  80. 0bail4cheese registered @ 2012-12-12 21:34:12, last login @ 2012-12-12 21:34:12
  81. 0garlic29cake registered @ 2012-12-12 21:35:15, last login @ 2012-12-12 21:35:15
  82. 0Shamcee1243 registered @ 2012-12-12 21:35:36, last login @ 2012-12-12 21:59:07
  83. 0gray10sun registered @ 2012-12-12 21:37:32, last login @ 2012-12-12 21:37:32
  84. 0farm80dish registered @ 2012-12-12 21:39:33, last login @ 2012-12-12 21:39:33
  85. 0tent91bat registered @ 2012-12-12 21:40:20, last login @ 2012-12-12 21:40:20
  86. 0sandpig67 registered @ 2012-12-12 21:40:52, last login @ 2012-12-12 21:40:52
  87. 0jamesyogurt05 registered @ 2012-12-12 21:40:59, last login @ 2012-12-12 21:40:59
  88. 0group66pimple registered @ 2012-12-12 21:41:14, last login @ 2012-12-12 21:41:14
  89. 0TimothyHWalker registered @ 2012-12-12 21:41:30, last login @ 2012-12-12 21:47:50
  90. 0tune32locket registered @ 2012-12-12 21:44:39, last login @ 2012-12-12 21:44:39
  91. 0writer3vase registered @ 2012-12-12 21:46:36, last login @ 2012-12-12 21:46:36
  92. 0koreansphynx5 registered @ 2012-12-12 21:46:55, last login @ 2012-12-12 21:46:55
  93. 0catseemia registered @ 2012-12-12 21:46:57, last login @ 2012-12-12 21:46:57
  94. 0kefah registered @ 2012-12-12 21:48:54, last login @ 2012-12-12 21:48:54
  95. 0frog64vein registered @ 2012-12-12 21:49:14, last login @ 2012-12-12 21:49:14
  96. 0jl3312002 registered @ 2012-12-12 21:50:42, last login @ 2012-12-12 21:50:42
  97. 0AdalryDatry registered @ 2012-12-12 21:50:56, last login @ 2012-12-12 21:50:56
  98. 0grease5beggar registered @ 2012-12-12 21:50:59, last login @ 2012-12-12 21:50:59
  99. 0clover8bus registered @ 2012-12-12 21:51:49, last login @ 2012-12-12 21:51:49
  100. 0fullerene registered @ 2012-12-12 21:52:42, last login @ 2012-12-12 21:52:42
  101. 0sortworm2 registered @ 2012-12-12 21:53:15, last login @ 2012-12-12 21:53:15

More...

[4910] [4909] [4908] [4907] [4906] [4905] [4904] [4903] [4902] [4901] [4900] [4899] [4898] [4897] [4896] [4895] [4894] [4893] [4892] [4891] ...[1]
Back to Top